Time;durP1;ratioP1;P1;durP2;ratioP2;P2;SDS_P1;SDS_P2;PMS_P1;PMS_P2;Temp;Humidity;BMP_temperature;BMP_pressure;BME280_temperature;BME280_humidity;BME280_pressure;Samples;Min_cycle;Max_cycle;Signal;HPM_P1;HPM_P2
2022/07/07 00:02:03;;;;;;;4.50;3.33;;;;;;;;;;5043925;28;20777;-73
2022/07/07 00:04:32;;;;;;;4.57;3.40;;;;;;;;;;5043752;28;20433;-74
2022/07/07 00:06:59;;;;;;;4.78;3.50;;;;;;;;;;5038335;28;20429;-72
2022/07/07 00:09:27;;;;;;;5.07;3.40;;;;;;;;;;5044828;28;20892;-72
2022/07/07 00:11:54;;;;;;;3.92;3.53;;;;;;;;;;5042559;28;20807;-72
2022/07/07 00:14:21;;;;;;;4.00;3.40;;;;;;;;;;5043879;28;20425;-71
2022/07/07 00:16:48;;;;;;;4.00;3.45;;;;;;;;;;5043958;28;20804;-71
2022/07/07 00:19:15;;;;;;;4.70;3.72;;;;;;;;;;5044072;28;20944;-72
2022/07/07 00:21:44;;;;;;;4.10;3.30;;;;;;;;;;5043192;28;20429;-73
2022/07/07 00:24:11;;;;;;;4.22;3.60;;;;;;;;;;5044212;28;20495;-73
2022/07/07 00:26:38;;;;;;;5.07;3.40;;;;;;;;;;5041390;28;20444;-72
2022/07/07 00:29:06;;;;;;;5.68;4.00;;;;;;;;;;5044339;28;20430;-73
2022/07/07 00:31:33;;;;;;;4.88;3.60;;;;;;;;;;5043322;28;20417;-73
2022/07/07 00:34:01;;;;;;;4.93;3.75;;;;;;;;;;5044953;28;20425;-72
2022/07/07 00:36:28;;;;;;;4.68;3.70;;;;;;;;;;5045020;28;20429;-72
2022/07/07 00:38:56;;;;;;;3.58;3.28;;;;;;;;;;5044957;28;20424;-73
2022/07/07 00:41:23;;;;;;;4.53;3.80;;;;;;;;;;5040284;28;20454;-73
2022/07/07 00:43:50;;;;;;;5.50;3.78;;;;;;;;;;5043224;28;20835;-71
2022/07/07 00:46:18;;;;;;;4.00;3.70;;;;;;;;;;5044519;28;20592;-72
2022/07/07 00:48:45;;;;;;;4.65;3.40;;;;;;;;;;5044326;28;20440;-73
2022/07/07 00:51:12;;;;;;;6.30;3.80;;;;;;;;;;5043455;28;20424;-72
2022/07/07 00:53:40;;;;;;;4.20;3.78;;;;;;;;;;5043129;28;20520;-72
2022/07/07 00:56:08;;;;;;;3.65;3.35;;;;;;;;;;5042384;28;20429;-73
2022/07/07 00:58:36;;;;;;;5.10;3.58;;;;;;;;;;5043147;28;20849;-73
2022/07/07 01:01:04;;;;;;;7.00;3.80;;;;;;;;;;5044117;28;20556;-73
2022/07/07 01:03:31;;;;;;;4.55;4.10;;;;;;;;;;5044193;28;20504;-72
2022/07/07 01:05:59;;;;;;;4.75;3.58;;;;;;;;;;5043491;28;20421;-74
2022/07/07 01:08:26;;;;;;;4.30;3.67;;;;;;;;;;5043611;28;20401;-73
2022/07/07 01:10:54;;;;;;;4.50;3.80;;;;;;;;;;5043347;28;20494;-72
2022/07/07 01:13:22;;;;;;;5.35;3.70;;;;;;;;;;5044922;28;20426;-72
2022/07/07 01:15:49;;;;;;;4.70;4.18;;;;;;;;;;5043177;28;20457;-73
2022/07/07 01:18:16;;;;;;;4.88;3.90;;;;;;;;;;5043958;28;20421;-73
2022/07/07 01:20:46;;;;;;;5.10;3.83;;;;;;;;;;5043865;28;20432;-72
2022/07/07 01:23:15;;;;;;;5.45;4.30;;;;;;;;;;5044075;28;20516;-72
2022/07/07 01:25:42;;;;;;;5.47;4.05;;;;;;;;;;5042422;28;20437;-73
2022/07/07 01:28:09;;;;;;;6.28;3.80;;;;;;;;;;5042893;28;20907;-73
2022/07/07 01:30:36;;;;;;;5.10;4.10;;;;;;;;;;5043111;28;20413;-72
2022/07/07 01:33:03;;;;;;;4.93;4.00;;;;;;;;;;5041744;28;20471;-74
2022/07/07 01:35:30;;;;;;;5.72;4.25;;;;;;;;;;5040943;28;20508;-73
2022/07/07 01:37:58;;;;;;;4.97;4.10;;;;;;;;;;5043666;28;20418;-73
2022/07/07 01:40:26;;;;;;;6.03;4.20;;;;;;;;;;5043323;28;20492;-71
2022/07/07 01:42:53;;;;;;;4.20;3.90;;;;;;;;;;5045197;28;20508;-71
2022/07/07 01:45:20;;;;;;;5.93;3.80;;;;;;;;;;5042574;28;20428;-74
2022/07/07 01:47:47;;;;;;;5.10;3.72;;;;;;;;;;5042335;28;20737;-73
2022/07/07 01:50:14;;;;;;;3.90;3.50;;;;;;;;;;5043025;28;20436;-73
2022/07/07 01:52:41;;;;;;;4.40;3.60;;;;;;;;;;5042415;28;20528;-71
2022/07/07 01:55:09;;;;;;;5.70;3.63;;;;;;;;;;5043468;28;20869;-73
2022/07/07 01:57:38;;;;;;;4.75;3.92;;;;;;;;;;5042260;28;20439;-72
2022/07/07 02:00:05;;;;;;;5.53;3.92;;;;;;;;;;5042807;28;20492;-73
2022/07/07 02:02:32;;;;;;;4.72;3.88;;;;;;;;;;5041812;28;20433;-72
2022/07/07 02:04:59;;;;;;;5.15;3.90;;;;;;;;;;5044245;28;20420;-73
2022/07/07 02:07:26;;;;;;;5.57;3.80;;;;;;;;;;5047010;28;20433;-72
2022/07/07 02:09:54;;;;;;;5.20;3.90;;;;;;;;;;5047108;28;20471;-72
2022/07/07 02:12:21;;;;;;;4.00;3.50;;;;;;;;;;5048588;28;20429;-72
2022/07/07 02:14:49;;;;;;;4.82;3.65;;;;;;;;;;5046954;28;20845;-72
2022/07/07 02:17:17;;;;;;;4.47;3.67;;;;;;;;;;5045162;28;20467;-73
2022/07/07 02:19:45;;;;;;;5.57;4.00;;;;;;;;;;5046021;28;20429;-72
2022/07/07 02:22:12;;;;;;;5.53;3.70;;;;;;;;;;5045631;28;20568;-73
2022/07/07 02:24:39;;;;;;;5.00;3.70;;;;;;;;;;5046203;28;21054;-71
2022/07/07 02:27:06;;;;;;;4.50;3.50;;;;;;;;;;5045987;28;20436;-72
2022/07/07 02:29:33;;;;;;;4.97;4.10;;;;;;;;;;5045223;28;20436;-72
2022/07/07 02:32:02;;;;;;;4.47;3.80;;;;;;;;;;5044815;28;20986;-72
2022/07/07 02:34:29;;;;;;;4.90;4.30;;;;;;;;;;5045861;28;20428;-73
2022/07/07 02:36:56;;;;;;;5.28;4.15;;;;;;;;;;5046331;28;20421;-72
2022/07/07 02:39:23;;;;;;;5.40;4.43;;;;;;;;;;5046241;28;20470;-71
2022/07/07 02:41:50;;;;;;;5.57;4.25;;;;;;;;;;5045239;28;20429;-73
2022/07/07 02:44:17;;;;;;;4.47;4.07;;;;;;;;;;5045660;28;20417;-73
2022/07/07 02:46:44;;;;;;;5.27;4.40;;;;;;;;;;5045121;28;20440;-74
2022/07/07 02:49:13;;;;;;;4.93;4.43;;;;;;;;;;5045714;28;20433;-73
2022/07/07 02:51:40;;;;;;;5.97;4.80;;;;;;;;;;5044814;28;20865;-73
2022/07/07 02:54:07;;;;;;;6.07;4.68;;;;;;;;;;5046157;28;20424;-73
2022/07/07 02:56:34;;;;;;;5.50;4.70;;;;;;;;;;5045303;28;20516;-73
2022/07/07 02:59:01;;;;;;;6.03;4.90;;;;;;;;;;5044645;28;20781;-73
2022/07/07 03:01:28;;;;;;;5.97;4.70;;;;;;;;;;5045283;28;20441;-72
2022/07/07 03:03:55;;;;;;;6.38;4.80;;;;;;;;;;5045234;28;20425;-74
2022/07/07 03:06:24;;;;;;;6.10;4.50;;;;;;;;;;5046341;28;20487;-74
2022/07/07 03:08:51;;;;;;;5.32;4.53;;;;;;;;;;5047068;28;20424;-71
2022/07/07 03:11:18;;;;;;;5.50;4.70;;;;;;;;;;5046719;28;20417;-73
2022/07/07 03:13:45;;;;;;;5.88;4.50;;;;;;;;;;5044462;28;20455;-73
2022/07/07 03:16:12;;;;;;;6.35;4.65;;;;;;;;;;5044627;28;20421;-73
2022/07/07 03:18:39;;;;;;;5.20;4.70;;;;;;;;;;5045226;28;20437;-71
2022/07/07 03:21:07;;;;;;;5.50;4.90;;;;;;;;;;5044774;28;20781;-73
2022/07/07 03:23:35;;;;;;;5.00;4.30;;;;;;;;;;5045639;28;20486;-73
2022/07/07 03:26:02;;;;;;;5.70;5.10;;;;;;;;;;5043918;28;21204;-72
2022/07/07 03:28:29;;;;;;;5.32;4.82;;;;;;;;;;5044529;28;20453;-72
2022/07/07 03:30:56;;;;;;;4.90;4.50;;;;;;;;;;5043198;28;20426;-73
2022/07/07 03:33:24;;;;;;;4.55;4.15;;;;;;;;;;5043585;28;20877;-73
2022/07/07 03:35:51;;;;;;;5.28;4.30;;;;;;;;;;5044772;28;20429;-74
2022/07/07 03:38:18;;;;;;;4.32;3.92;;;;;;;;;;5044483;28;20500;-73
2022/07/07 03:40:46;;;;;;;4.90;4.50;;;;;;;;;;5044312;28;20488;-72
2022/07/07 03:43:13;;;;;;;5.15;4.20;;;;;;;;;;5045568;28;20896;-71
2022/07/07 03:45:41;;;;;;;4.93;4.00;;;;;;;;;;5043975;28;20512;-71
2022/07/07 03:48:08;;;;;;;5.13;4.20;;;;;;;;;;5043962;28;20456;-72
2022/07/07 03:50:35;;;;;;;5.47;4.50;;;;;;;;;;5043909;28;21006;-72
2022/07/07 03:53:02;;;;;;;4.30;3.90;;;;;;;;;;5043868;28;20554;-73
2022/07/07 03:55:29;;;;;;;4.90;3.80;;;;;;;;;;5044885;28;20425;-73
2022/07/07 03:57:57;;;;;;;4.72;3.50;;;;;;;;;;5044238;28;20421;-73
2022/07/07 04:00:24;;;;;;;4.37;3.13;;;;;;;;;;5041596;28;20435;-72
2022/07/07 04:02:51;;;;;;;3.45;3.15;;;;;;;;;;5044623;28;20939;-72
2022/07/07 04:05:19;;;;;;;3.75;3.40;;;;;;;;;;5044172;28;20496;-72
2022/07/07 04:07:46;;;;;;;5.18;3.40;;;;;;;;;;5038175;28;20515;-71
2022/07/07 04:10:13;;;;;;;6.07;3.10;;;;;;;;;;5039770;28;20905;-73
2022/07/07 04:12:40;;;;;;;4.68;2.90;;;;;;;;;;5046299;28;20424;-71
2022/07/07 04:15:09;;;;;;;4.20;3.10;;;;;;;;;;5041762;28;20436;-72
2022/07/07 04:17:36;;;;;;;3.70;3.30;;;;;;;;;;5059402;28;20435;-72
2022/07/07 04:20:04;;;;;;;4.07;3.42;;;;;;;;;;5044327;28;20878;-74
2022/07/07 04:22:31;;;;;;;4.70;3.30;;;;;;;;;;5047970;28;20425;-74
2022/07/07 04:24:59;;;;;;;5.22;3.10;;;;;;;;;;5043895;28;20429;-73
2022/07/07 04:27:26;;;;;;;5.15;3.40;;;;;;;;;;5042421;28;20444;-73
2022/07/07 04:29:53;;;;;;;4.97;3.20;;;;;;;;;;5057301;28;20795;-72
2022/07/07 04:32:21;;;;;;;3.50;3.20;;;;;;;;;;5053406;28;20523;-73
2022/07/07 04:34:48;;;;;;;4.03;3.43;;;;;;;;;;5042872;28;20432;-72
2022/07/07 04:37:15;;;;;;;3.35;3.05;;;;;;;;;;5044739;28;20433;-74
2022/07/07 04:39:42;;;;;;;4.82;3.30;;;;;;;;;;5043516;28;20757;-72
2022/07/07 04:42:10;;;;;;;4.50;3.40;;;;;;;;;;5052112;28;20539;-72
2022/07/07 04:44:37;;;;;;;23.45;7.43;;;;;;;;;;5064252;28;20431;-74
2022/07/07 04:47:04;;;;;;;4.50;3.00;;;;;;;;;;5059100;28;20448;-74
2022/07/07 04:49:33;;;;;;;4.43;3.20;;;;;;;;;;5038547;28;20461;-67
2022/07/07 04:52:00;;;;;;;4.53;3.10;;;;;;;;;;5038580;28;20489;-66
2022/07/07 04:54:27;;;;;;;4.30;3.13;;;;;;;;;;5041277;28;20864;-65
2022/07/07 04:56:54;;;;;;;5.13;3.40;;;;;;;;;;5046627;28;20592;-65
2022/07/07 04:59:21;;;;;;;3.40;2.90;;;;;;;;;;5042537;28;20417;-68
2022/07/07 05:01:49;;;;;;;3.53;2.75;;;;;;;;;;5042326;28;20762;-67
2022/07/07 05:04:16;;;;;;;3.87;2.80;;;;;;;;;;5049515;28;20428;-65
2022/07/07 05:06:44;;;;;;;5.00;2.80;;;;;;;;;;5042316;28;20437;-66
2022/07/07 05:09:12;;;;;;;4.40;3.00;;;;;;;;;;5042757;28;20535;-65
2022/07/07 05:11:39;;;;;;;4.10;2.80;;;;;;;;;;5051590;28;20419;-66
2022/07/07 05:14:06;;;;;;;2.93;2.50;;;;;;;;;;5041765;28;20783;-67
2022/07/07 05:16:33;;;;;;;3.30;2.60;;;;;;;;;;5041728;28;20907;-65
2022/07/07 05:19:00;;;;;;;3.47;2.60;;;;;;;;;;5043311;28;20947;-66
2022/07/07 05:21:27;;;;;;;3.55;3.00;;;;;;;;;;5039228;28;20444;-63
2022/07/07 05:23:56;;;;;;;4.70;2.70;;;;;;;;;;5045568;28;20500;-66
2022/07/07 05:26:23;;;;;;;4.30;2.80;;;;;;;;;;5043184;28;20536;-67
2022/07/07 05:28:50;;;;;;;5.35;2.60;;;;;;;;;;5053997;28;20427;-67
2022/07/07 05:31:17;;;;;;;4.53;2.80;;;;;;;;;;5041344;28;20425;-66
2022/07/07 05:33:44;;;;;;;5.83;2.60;;;;;;;;;;5042115;28;20490;-68
2022/07/07 05:36:11;;;;;;;3.90;2.33;;;;;;;;;;5062220;28;20423;-66
2022/07/07 05:38:39;;;;;;;4.75;2.90;;;;;;;;;;5062653;28;20900;-65
2022/07/07 05:41:08;;;;;;;4.60;2.90;;;;;;;;;;5063835;28;20487;-66
2022/07/07 05:43:35;;;;;;;5.03;2.70;;;;;;;;;;5050399;28;20757;-67
2022/07/07 05:46:02;;;;;;;4.93;2.60;;;;;;;;;;5041940;28;20838;-66
2022/07/07 05:48:29;;;;;;;4.20;3.10;;;;;;;;;;5046281;28;20443;-66
2022/07/07 05:50:56;;;;;;;4.80;2.70;;;;;;;;;;5045563;28;20440;-67
2022/07/07 05:53:23;;;;;;;6.63;3.00;;;;;;;;;;5059526;28;20445;-71
2022/07/07 05:55:50;;;;;;;6.80;3.23;;;;;;;;;;5064088;28;20879;-70
2022/07/07 05:58:19;;;;;;;4.97;3.40;;;;;;;;;;5051730;28;20448;-70
2022/07/07 06:00:47;;;;;;;5.93;3.92;;;;;;;;;;5050502;28;20439;-71
2022/07/07 06:03:14;;;;;;;7.40;4.32;;;;;;;;;;5049808;28;20508;-70
2022/07/07 06:05:41;;;;;;;9.95;5.35;;;;;;;;;;5050890;28;20429;-71
2022/07/07 06:08:09;;;;;;;9.65;5.45;;;;;;;;;;5062522;28;20871;-71
2022/07/07 06:10:36;;;;;;;9.98;5.93;;;;;;;;;;5067534;28;20572;-71
2022/07/07 06:13:03;;;;;;;8.98;6.30;;;;;;;;;;5059695;28;20426;-72
2022/07/07 06:15:33;;;;;;;30.08;8.88;;;;;;;;;;5044249;28;20520;-69
2022/07/07 06:18:01;;;;;;;19.65;17.02;;;;;;;;;;5041781;28;20854;-69
2022/07/07 06:20:28;;;;;;;14.15;10.20;;;;;;;;;;5045096;28;20776;-72
2022/07/07 06:22:55;;;;;;;15.30;10.97;;;;;;;;;;5048283;28;20425;-72
2022/07/07 06:25:22;;;;;;;12.77;8.48;;;;;;;;;;5045683;28;20511;-73
2022/07/07 06:27:49;;;;;;;11.57;7.30;;;;;;;;;;5052158;28;20507;-73
2022/07/07 06:30:17;;;;;;;11.85;7.60;;;;;;;;;;5045624;28;20436;-73
2022/07/07 06:32:45;;;;;;;13.30;8.30;;;;;;;;;;5065956;28;20407;-73
2022/07/07 06:35:13;;;;;;;11.63;7.60;;;;;;;;;;5055656;28;20417;-72
2022/07/07 06:37:40;;;;;;;11.18;8.15;;;;;;;;;;5049289;28;20433;-71
2022/07/07 06:40:08;;;;;;;12.80;9.18;;;;;;;;;;5047061;28;20413;-72
2022/07/07 06:42:35;;;;;;;10.90;8.00;;;;;;;;;;5044199;28;20500;-72
2022/07/07 06:45:02;;;;;;;10.02;6.80;;;;;;;;;;5043711;28;20433;-72
2022/07/07 06:47:29;;;;;;;10.75;5.60;;;;;;;;;;5045756;28;20455;-71
2022/07/07 06:49:57;;;;;;;8.80;5.40;;;;;;;;;;5049602;28;20527;-71
2022/07/07 06:52:24;;;;;;;9.05;6.03;;;;;;;;;;5045240;28;20696;-72
2022/07/07 06:54:51;;;;;;;10.48;6.60;;;;;;;;;;5049240;28;20433;-72
2022/07/07 06:57:19;;;;;;;9.75;7.00;;;;;;;;;;5045071;28;20428;-71
2022/07/07 06:59:46;;;;;;;10.13;7.03;;;;;;;;;;5060518;28;20799;-71
2022/07/07 07:02:13;;;;;;;9.10;6.00;;;;;;;;;;5064910;28;20444;-70
2022/07/07 07:04:40;;;;;;;84.78;12.55;;;;;;;;;;5058298;28;20435;-70
2022/07/07 07:07:08;;;;;;;7.25;4.80;;;;;;;;;;5054832;28;20424;-71
2022/07/07 07:09:35;;;;;;;9.32;4.90;;;;;;;;;;5061990;28;20765;-71
2022/07/07 07:12:02;;;;;;;7.97;4.35;;;;;;;;;;5044537;28;20532;-70
2022/07/07 07:14:30;;;;;;;7.03;4.40;;;;;;;;;;5044466;28;20421;-70
2022/07/07 07:16:57;;;;;;;7.65;5.15;;;;;;;;;;5047803;28;20416;-70
2022/07/07 07:19:24;;;;;;;8.10;4.40;;;;;;;;;;5046689;28;20430;-70
2022/07/07 07:21:51;;;;;;;8.00;5.00;;;;;;;;;;5063470;28;20535;-70
2022/07/07 07:24:19;;;;;;;7.68;4.70;;;;;;;;;;5055947;28;20417;-72
2022/07/07 07:26:46;;;;;;;7.05;4.10;;;;;;;;;;5045406;28;20433;-71
2022/07/07 07:29:14;;;;;;;9.35;4.55;;;;;;;;;;5048844;28;20507;-72
2022/07/07 07:31:41;;;;;;;7.30;4.15;;;;;;;;;;5048070;28;20433;-70
2022/07/07 07:34:08;;;;;;;7.35;3.10;;;;;;;;;;5045041;28;20517;-70
2022/07/07 07:36:35;;;;;;;7.82;2.55;;;;;;;;;;5049868;28;20813;-70
2022/07/07 07:39:03;;;;;;;7.78;2.05;;;;;;;;;;5045562;28;20425;-71
2022/07/07 07:41:32;;;;;;;6.85;1.73;;;;;;;;;;5044524;28;20423;-70
2022/07/07 07:43:59;;;;;;;6.05;1.60;;;;;;;;;;5052294;28;20505;-72
2022/07/07 07:46:26;;;;;;;6.85;1.63;;;;;;;;;;5048778;28;20433;-71
2022/07/07 07:48:53;;;;;;;6.72;1.65;;;;;;;;;;5044865;28;20421;-72
2022/07/07 07:51:21;;;;;;;6.70;1.60;;;;;;;;;;5043736;28;20480;-73
2022/07/07 07:53:48;;;;;;;6.90;1.60;;;;;;;;;;5061092;28;20415;-69
2022/07/07 07:56:15;;;;;;;7.00;1.90;;;;;;;;;;5051124;28;20421;-71
2022/07/07 07:58:43;;;;;;;7.20;2.10;;;;;;;;;;5048923;28;20541;-71
2022/07/07 08:01:10;;;;;;;6.07;1.45;;;;;;;;;;5044500;28;20476;-70
2022/07/07 08:03:38;;;;;;;8.30;1.80;;;;;;;;;;5043018;28;20440;-70
2022/07/07 08:06:05;;;;;;;6.50;1.60;;;;;;;;;;5044545;28;20498;-70
2022/07/07 08:08:32;;;;;;;8.10;1.93;;;;;;;;;;5044766;28;20447;-71
2022/07/07 08:10:59;;;;;;;5.10;1.30;;;;;;;;;;5041349;28;20444;-72
2022/07/07 08:13:26;;;;;;;4.35;1.00;;;;;;;;;;5041198;28;20967;-71
2022/07/07 08:15:57;;;;;;;4.80;1.00;;;;;;;;;;5044132;28;20495;-71
2022/07/07 08:18:26;;;;;;;5.13;1.27;;;;;;;;;;5043571;28;20432;-71
2022/07/07 08:20:54;;;;;;;5.00;0.80;;;;;;;;;;5041822;28;20440;-71
2022/07/07 08:23:21;;;;;;;4.30;0.90;;;;;;;;;;5047314;28;20467;-72
2022/07/07 08:25:48;;;;;;;5.03;0.90;;;;;;;;;;5045397;28;20432;-71
2022/07/07 08:28:15;;;;;;;4.97;0.70;;;;;;;;;;5046999;28;20437;-71
2022/07/07 08:30:42;;;;;;;4.50;0.90;;;;;;;;;;5042195;28;20582;-71
2022/07/07 08:33:11;;;;;;;4.25;0.90;;;;;;;;;;5043956;28;20440;-71
2022/07/07 08:35:38;;;;;;;5.00;1.10;;;;;;;;;;5044107;28;20417;-71
2022/07/07 08:38:06;;;;;;;5.32;1.10;;;;;;;;;;5043617;28;20417;-72
2022/07/07 08:40:33;;;;;;;3.83;0.80;;;;;;;;;;5042595;28;20432;-72
2022/07/07 08:43:00;;;;;;;3.67;1.10;;;;;;;;;;5042740;28;20426;-72
2022/07/07 08:45:27;;;;;;;4.10;1.40;;;;;;;;;;5039629;28;20445;-71
2022/07/07 08:47:55;;;;;;;5.80;1.77;;;;;;;;;;5041261;28;20437;-72
2022/07/07 08:50:24;;;;;;;10.35;2.08;;;;;;;;;;5053941;28;20444;-73
2022/07/07 08:52:54;;;;;;;4.80;1.20;;;;;;;;;;5041781;28;20433;-70
2022/07/07 08:55:22;;;;;;;6.15;1.40;;;;;;;;;;5042019;28;20672;-72
2022/07/07 08:57:50;;;;;;;5.32;1.10;;;;;;;;;;5048756;28;20419;-72
2022/07/07 09:00:18;;;;;;;5.35;1.23;;;;;;;;;;5051671;28;20738;-71
2022/07/07 09:02:45;;;;;;;6.20;1.48;;;;;;;;;;5046692;28;20551;-71
2022/07/07 09:05:13;;;;;;;5.22;1.30;;;;;;;;;;5044672;28;20424;-72
2022/07/07 09:07:48;;;;;;;4.55;1.15;;;;;;;;;;5049764;28;20424;-72
2022/07/07 09:10:28;;;;;;;5.40;1.30;;;;;;;;;;5065474;28;20879;-70
2022/07/07 09:12:55;;;;;;;6.60;1.30;;;;;;;;;;5039944;28;21109;-72
2022/07/07 09:15:22;;;;;;;5.95;1.50;;;;;;;;;;5048407;28;20425;-75
2022/07/07 09:17:49;;;;;;;6.25;1.80;;;;;;;;;;5043469;28;21156;-75
2022/07/07 09:20:16;;;;;;;6.83;1.60;;;;;;;;;;5045730;28;20952;-74
2022/07/07 09:22:45;;;;;;;5.68;1.45;;;;;;;;;;5058970;28;20836;-75
2022/07/07 09:25:14;;;;;;;5.40;1.33;;;;;;;;;;5053053;28;20433;-74
2022/07/07 09:27:56;;;;;;;4.75;1.20;;;;;;;;;;5049097;28;20444;-74
2022/07/07 09:30:27;;;;;;;4.70;1.20;;;;;;;;;;5044274;28;20895;-74
2022/07/07 09:32:54;;;;;;;4.05;1.20;;;;;;;;;;5039332;28;20437;-74
2022/07/07 09:38:15;;;;;;;5.00;1.70;;;;;;;;;;5048257;28;20424;-74
2022/07/07 09:40:54;;;;;;;4.95;1.20;;;;;;;;;;5062535;28;20471;-72
2022/07/07 09:43:21;;;;;;;4.10;0.95;;;;;;;;;;5070070;28;20431;-73
2022/07/07 09:45:49;;;;;;;3.83;1.00;;;;;;;;;;5068421;28;20407;-73
2022/07/07 09:48:16;;;;;;;4.18;1.30;;;;;;;;;;5046471;28;20521;-75
2022/07/07 09:50:43;;;;;;;4.03;1.20;;;;;;;;;;5048159;28;20417;-73
2022/07/07 09:53:11;;;;;;;4.03;1.00;;;;;;;;;;5047717;28;20425;-73
2022/07/07 09:55:38;;;;;;;4.50;1.20;;;;;;;;;;5046861;28;20492;-73
2022/07/07 09:58:06;;;;;;;5.05;1.13;;;;;;;;;;5046947;28;20802;-73
2022/07/07 10:00:34;;;;;;;4.20;1.10;;;;;;;;;;5056802;28;20491;-73
2022/07/07 10:03:01;;;;;;;5.10;1.25;;;;;;;;;;5046190;28;20460;-73
2022/07/07 10:05:29;;;;;;;4.60;1.20;;;;;;;;;;5046212;28;20421;-73
2022/07/07 10:07:57;;;;;;;3.80;1.20;;;;;;;;;;5046068;28;20821;-73
2022/07/07 10:10:24;;;;;;;3.20;0.90;;;;;;;;;;5046329;28;20822;-73
2022/07/07 10:12:53;;;;;;;4.00;1.20;;;;;;;;;;5047560;28;20414;-74
2022/07/07 10:15:22;;;;;;;3.42;1.10;;;;;;;;;;5052935;28;20584;-73
2022/07/07 10:17:49;;;;;;;4.45;1.25;;;;;;;;;;5043725;28;20530;-74
2022/07/07 10:20:16;;;;;;;3.20;0.73;;;;;;;;;;5046372;28;20409;-73
2022/07/07 10:22:45;;;;;;;3.40;0.90;;;;;;;;;;5045704;28;20451;-73
2022/07/07 10:25:12;;;;;;;5.65;0.93;;;;;;;;;;5046498;28;20433;-75
2022/07/07 10:27:42;;;;;;;3.00;0.90;;;;;;;;;;5046100;28;20417;-75
2022/07/07 10:30:09;;;;;;;3.20;0.90;;;;;;;;;;5044149;28;20414;-73
2022/07/07 10:32:40;;;;;;;2.80;0.90;;;;;;;;;;5044724;28;20892;-74
2022/07/07 10:35:08;;;;;;;2.45;0.70;;;;;;;;;;5043802;28;20433;-75
2022/07/07 10:37:42;;;;;;;3.50;0.80;;;;;;;;;;5045951;28;20418;-74
2022/07/07 10:40:12;;;;;;;3.33;1.00;;;;;;;;;;5045838;28;20755;-74
2022/07/07 10:42:54;;;;;;;4.00;0.90;;;;;;;;;;5046766;28;20440;-74
2022/07/07 10:45:22;;;;;;;4.00;1.23;;;;;;;;;;5050675;28;20450;-73
2022/07/07 10:47:51;;;;;;;4.40;1.15;;;;;;;;;;5047928;28;20506;-73
2022/07/07 10:50:25;;;;;;;4.03;1.00;;;;;;;;;;5045738;28;20498;-74
2022/07/07 10:52:53;;;;;;;2.90;0.80;;;;;;;;;;5046346;28;20428;-73
2022/07/07 10:55:20;;;;;;;3.60;1.02;;;;;;;;;;5049346;28;20421;-74
2022/07/07 10:57:48;;;;;;;4.40;1.58;;;;;;;;;;5049138;28;20415;-73
2022/07/07 11:00:16;;;;;;;3.33;0.90;;;;;;;;;;5065644;28;20468;-74
2022/07/07 11:02:46;;;;;;;3.70;1.10;;;;;;;;;;5060700;28;20460;-75
2022/07/07 11:05:34;;;;;;;3.15;0.95;;;;;;;;;;5045575;28;20429;-74
2022/07/07 11:08:11;;;;;;;3.70;1.20;;;;;;;;;;5045499;28;20502;-75
2022/07/07 11:10:52;;;;;;;4.63;1.60;;;;;;;;;;5047411;28;21217;-75
2022/07/07 11:13:21;;;;;;;4.18;1.30;;;;;;;;;;5051351;28;20529;-75
2022/07/07 11:15:49;;;;;;;4.68;1.30;;;;;;;;;;5068720;28;20959;-74
2022/07/07 11:18:18;;;;;;;4.00;1.60;;;;;;;;;;5044454;28;20444;-74
2022/07/07 11:20:53;;;;;;;3.65;1.00;;;;;;;;;;5052888;28;20464;-73
2022/07/07 11:23:20;;;;;;;3.10;1.00;;;;;;;;;;5054317;28;20434;-75
2022/07/07 11:25:51;;;;;;;3.65;1.17;;;;;;;;;;5045547;28;20885;-74
2022/07/07 11:28:18;;;;;;;2.58;0.80;;;;;;;;;;5059783;28;20423;-75
2022/07/07 11:30:45;;;;;;;3.65;1.15;;;;;;;;;;5058988;28;20489;-74
2022/07/07 11:33:12;;;;;;;2.92;1.10;;;;;;;;;;5050008;28;20425;-74
2022/07/07 11:35:40;;;;;;;5.65;1.75;;;;;;;;;;5055595;28;20438;-74
2022/07/07 11:38:11;;;;;;;5.53;1.50;;;;;;;;;;5052019;28;20547;-74
2022/07/07 11:40:39;;;;;;;4.68;1.58;;;;;;;;;;5054477;28;20428;-73
2022/07/07 11:43:06;;;;;;;4.78;1.50;;;;;;;;;;5049264;28;20906;-74
2022/07/07 11:45:34;;;;;;;5.93;1.50;;;;;;;;;;5045037;28;20585;-74
2022/07/07 11:48:02;;;;;;;5.40;1.63;;;;;;;;;;5044976;28;20433;-75
2022/07/07 11:50:31;;;;;;;4.15;1.20;;;;;;;;;;5042787;28;20429;-75
2022/07/07 11:52:59;;;;;;;4.32;1.40;;;;;;;;;;5047162;28;20477;-75
2022/07/07 11:55:28;;;;;;;4.53;1.25;;;;;;;;;;5043807;28;20448;-74
2022/07/07 11:57:56;;;;;;;3.65;1.30;;;;;;;;;;5044802;28;20457;-74
2022/07/07 12:00:24;;;;;;;3.70;1.00;;;;;;;;;;5056157;28;20938;-75
2022/07/07 12:02:52;;;;;;;6.50;1.50;;;;;;;;;;5058643;28;20564;-74
2022/07/07 12:05:19;;;;;;;4.30;1.20;;;;;;;;;;5044662;28;20425;-74
2022/07/07 12:07:53;;;;;;;3.65;1.20;;;;;;;;;;5043130;28;20440;-74
2022/07/07 12:10:21;;;;;;;6.53;1.48;;;;;;;;;;5044667;28;20429;-74
2022/07/07 12:12:56;;;;;;;4.30;1.25;;;;;;;;;;5060448;28;20503;-74
2022/07/07 12:15:24;;;;;;;4.00;1.30;;;;;;;;;;5045285;28;20426;-74
2022/07/07 12:17:51;;;;;;;4.20;1.30;;;;;;;;;;5039168;28;20423;-74
2022/07/07 12:20:19;;;;;;;6.00;1.80;;;;;;;;;;5039522;28;20437;-74
2022/07/07 12:22:51;;;;;;;4.63;1.30;;;;;;;;;;5042836;28;20444;-74
2022/07/07 12:25:18;;;;;;;5.20;1.50;;;;;;;;;;5043831;28;20433;-74
2022/07/07 12:27:57;;;;;;;6.13;1.70;;;;;;;;;;5035512;28;20963;-74
2022/07/07 12:30:25;;;;;;;4.10;1.30;;;;;;;;;;5044096;28;20793;-75
2022/07/07 12:32:52;;;;;;;3.50;1.23;;;;;;;;;;5044414;28;21163;-75
2022/07/07 12:35:32;;;;;;;4.95;1.33;;;;;;;;;;5048413;28;20429;-75
2022/07/07 12:38:00;;;;;;;4.70;1.52;;;;;;;;;;5045505;28;20421;-73
2022/07/07 12:40:27;;;;;;;5.95;1.40;;;;;;;;;;5044683;28;20515;-74
2022/07/07 12:42:55;;;;;;;4.20;1.40;;;;;;;;;;5045175;28;20432;-75
2022/07/07 12:45:24;;;;;;;3.47;1.17;;;;;;;;;;5063935;28;20538;-72
2022/07/07 12:47:53;;;;;;;5.35;1.17;;;;;;;;;;5064218;28;20415;-74
2022/07/07 12:50:20;;;;;;;4.60;1.35;;;;;;;;;;5045850;28;20456;-75
2022/07/07 12:52:57;;;;;;;3.53;1.30;;;;;;;;;;5046423;28;20425;-75
2022/07/07 12:55:27;;;;;;;3.88;1.00;;;;;;;;;;5059975;28;20421;-75
2022/07/07 12:57:54;;;;;;;3.90;1.23;;;;;;;;;;5043875;28;20417;-74
2022/07/07 13:00:26;;;;;;;3.42;1.23;;;;;;;;;;5043099;28;20440;-73
2022/07/07 13:02:53;;;;;;;6.55;1.73;;;;;;;;;;5046772;28;20975;-73
2022/07/07 13:05:20;;;;;;;4.05;1.40;;;;;;;;;;5041235;28;20894;-73
2022/07/07 13:07:47;;;;;;;4.30;1.65;;;;;;;;;;5042894;28;20497;-73
2022/07/07 13:10:14;;;;;;;3.88;1.23;;;;;;;;;;5042823;28;20417;-74
2022/07/07 13:12:44;;;;;;;5.50;1.58;;;;;;;;;;5043833;28;20473;-73
2022/07/07 13:15:12;;;;;;;3.37;1.40;;;;;;;;;;5043971;28;20939;-73
2022/07/07 13:17:42;;;;;;;4.28;1.58;;;;;;;;;;5039120;28;20434;-73
2022/07/07 13:20:09;;;;;;;4.60;1.50;;;;;;;;;;5036154;28;20510;-72
2022/07/07 13:22:36;;;;;;;5.43;1.90;;;;;;;;;;5043275;28;20488;-73
2022/07/07 13:25:04;;;;;;;3.80;1.60;;;;;;;;;;5044385;28;20452;-73
2022/07/07 13:27:31;;;;;;;3.43;1.23;;;;;;;;;;5038809;28;21071;-73
2022/07/07 13:29:58;;;;;;;4.82;1.20;;;;;;;;;;5039585;28;20435;-73
2022/07/07 13:32:25;;;;;;;6.80;1.38;;;;;;;;;;5043489;28;20434;-73
2022/07/07 13:34:53;;;;;;;4.40;1.30;;;;;;;;;;5044361;28;20465;-73
2022/07/07 13:37:21;;;;;;;3.50;1.30;;;;;;;;;;5044396;28;20424;-73
2022/07/07 13:39:48;;;;;;;3.30;1.08;;;;;;;;;;5044651;28;20417;-72
2022/07/07 13:42:15;;;;;;;3.42;1.08;;;;;;;;;;5043230;28;20771;-72
2022/07/07 13:44:42;;;;;;;3.60;1.20;;;;;;;;;;5043123;28;20436;-72
2022/07/07 13:47:10;;;;;;;2.80;1.02;;;;;;;;;;5040855;28;20592;-73
2022/07/07 13:49:37;;;;;;;2.90;1.30;;;;;;;;;;5060211;28;20415;-74
2022/07/07 13:52:07;;;;;;;3.90;1.10;;;;;;;;;;5045929;28;21132;-73
2022/07/07 13:54:34;;;;;;;3.40;1.10;;;;;;;;;;5041939;28;20990;-73
2022/07/07 13:57:02;;;;;;;3.60;1.80;;;;;;;;;;5043454;28;20552;-73
2022/07/07 13:59:29;;;;;;;4.10;1.90;;;;;;;;;;5043302;28;20417;-73
2022/07/07 14:01:56;;;;;;;3.05;1.25;;;;;;;;;;5043556;28;20500;-74
2022/07/07 14:04:23;;;;;;;3.85;1.52;;;;;;;;;;5046431;28;20425;-74
2022/07/07 14:06:50;;;;;;;5.80;1.60;;;;;;;;;;5046614;28;20521;-74
2022/07/07 14:09:18;;;;;;;3.35;1.48;;;;;;;;;;5046398;28;20425;-75
2022/07/07 14:11:46;;;;;;;3.92;1.60;;;;;;;;;;5046882;28;20512;-73
2022/07/07 14:14:13;;;;;;;3.78;1.50;;;;;;;;;;5051905;28;20498;-73
2022/07/07 14:16:40;;;;;;;3.58;1.10;;;;;;;;;;5048529;28;20577;-73
2022/07/07 14:19:07;;;;;;;3.53;1.42;;;;;;;;;;5040446;28;20423;-75
2022/07/07 14:21:35;;;;;;;3.60;1.25;;;;;;;;;;5066986;28;20416;-73
2022/07/07 14:24:02;;;;;;;4.18;1.50;;;;;;;;;;5048569;28;20465;-73
2022/07/07 14:26:30;;;;;;;4.25;1.30;;;;;;;;;;5046751;28;20432;-73
2022/07/07 14:28:57;;;;;;;4.30;1.50;;;;;;;;;;5046825;28;20462;-73
2022/07/07 14:31:26;;;;;;;3.33;1.53;;;;;;;;;;5046605;28;20413;-73
2022/07/07 14:33:53;;;;;;;3.60;1.40;;;;;;;;;;5046323;28;20444;-74
2022/07/07 14:36:20;;;;;;;3.47;1.30;;;;;;;;;;5045817;28;20460;-74
2022/07/07 14:38:48;;;;;;;3.40;1.00;;;;;;;;;;5044840;28;20499;-74
2022/07/07 14:41:15;;;;;;;2.60;1.00;;;;;;;;;;5046180;28;20474;-74
2022/07/07 14:43:43;;;;;;;3.40;1.20;;;;;;;;;;5046552;28;20504;-74
2022/07/07 14:46:10;;;;;;;2.50;1.13;;;;;;;;;;5047793;28;21112;-74
2022/07/07 14:48:37;;;;;;;3.15;1.00;;;;;;;;;;5066654;28;20416;-75
2022/07/07 14:51:05;;;;;;;4.00;1.10;;;;;;;;;;5062055;28;20526;-75